sensor_id;sensor_type;location;lat;lon;timestamp;P1;durP1;ratioP1;P2;durP2;ratioP2
3801;SDS011;1916;51.798;12.246;2023-03-16T00:00:17;8.50;;;5.00;;
3801;SDS011;1916;51.798;12.246;2023-03-16T00:02:23;9.83;;;5.30;;
3801;SDS011;1916;51.798;12.246;2023-03-16T00:04:25;13.43;;;4.50;;
3801;SDS011;1916;51.798;12.246;2023-03-16T00:06:27;7.83;;;4.60;;
3801;SDS011;1916;51.798;12.246;2023-03-16T00:08:29;11.90;;;4.60;;
3801;SDS011;1916;51.798;12.246;2023-03-16T00:10:32;6.60;;;4.40;;
3801;SDS011;1916;51.798;12.246;2023-03-16T00:12:35;12.43;;;4.80;;
3801;SDS011;1916;51.798;12.246;2023-03-16T00:14:37;13.40;;;5.23;;
3801;SDS011;1916;51.798;12.246;2023-03-16T00:16:39;8.30;;;4.43;;
3801;SDS011;1916;51.798;12.246;2023-03-16T00:18:44;8.43;;;5.00;;
3801;SDS011;1916;51.798;12.246;2023-03-16T00:20:50;7.77;;;5.00;;
3801;SDS011;1916;51.798;12.246;2023-03-16T00:22:53;10.43;;;4.57;;
3801;SDS011;1916;51.798;12.246;2023-03-16T00:24:56;17.97;;;7.03;;
3801;SDS011;1916;51.798;12.246;2023-03-16T00:26:58;13.00;;;6.27;;
3801;SDS011;1916;51.798;12.246;2023-03-16T00:29:00;8.50;;;5.47;;
3801;SDS011;1916;51.798;12.246;2023-03-16T00:31:10;16.70;;;6.47;;
3801;SDS011;1916;51.798;12.246;2023-03-16T00:33:13;11.40;;;5.20;;
3801;SDS011;1916;51.798;12.246;2023-03-16T00:35:16;7.80;;;5.33;;
3801;SDS011;1916;51.798;12.246;2023-03-16T00:37:19;11.40;;;5.20;;
3801;SDS011;1916;51.798;12.246;2023-03-16T00:39:24;9.87;;;5.27;;
3801;SDS011;1916;51.798;12.246;2023-03-16T00:41:27;9.43;;;5.20;;
3801;SDS011;1916;51.798;12.246;2023-03-16T00:43:29;10.70;;;5.40;;
3801;SDS011;1916;51.798;12.246;2023-03-16T00:45:33;7.50;;;4.90;;
3801;SDS011;1916;51.798;12.246;2023-03-16T00:47:35;6.93;;;4.70;;
3801;SDS011;1916;51.798;12.246;2023-03-16T00:49:38;8.83;;;5.50;;
3801;SDS011;1916;51.798;12.246;2023-03-16T00:51:43;7.90;;;5.30;;
3801;SDS011;1916;51.798;12.246;2023-03-16T00:53:47;14.73;;;6.20;;
3801;SDS011;1916;51.798;12.246;2023-03-16T00:55:50;14.97;;;6.07;;
3801;SDS011;1916;51.798;12.246;2023-03-16T00:57:55;9.80;;;6.30;;
3801;SDS011;1916;51.798;12.246;2023-03-16T00:59:57;7.63;;;5.73;;
3801;SDS011;1916;51.798;12.246;2023-03-16T01:02:01;8.03;;;5.17;;
3801;SDS011;1916;51.798;12.246;2023-03-16T01:04:04;11.40;;;5.50;;
3801;SDS011;1916;51.798;12.246;2023-03-16T01:06:09;6.97;;;5.20;;
3801;SDS011;1916;51.798;12.246;2023-03-16T01:08:13;9.00;;;5.60;;
3801;SDS011;1916;51.798;12.246;2023-03-16T01:10:15;8.23;;;5.73;;
3801;SDS011;1916;51.798;12.246;2023-03-16T01:12:18;8.80;;;4.83;;
3801;SDS011;1916;51.798;12.246;2023-03-16T01:14:21;10.10;;;5.03;;
3801;SDS011;1916;51.798;12.246;2023-03-16T01:16:25;8.17;;;4.80;;
3801;SDS011;1916;51.798;12.246;2023-03-16T01:18:28;8.60;;;4.80;;
3801;SDS011;1916;51.798;12.246;2023-03-16T01:20:34;8.00;;;5.40;;
3801;SDS011;1916;51.798;12.246;2023-03-16T01:22:38;11.53;;;4.10;;
3801;SDS011;1916;51.798;12.246;2023-03-16T01:24:43;6.40;;;4.70;;
3801;SDS011;1916;51.798;12.246;2023-03-16T01:26:46;6.70;;;4.13;;
3801;SDS011;1916;51.798;12.246;2023-03-16T01:28:49;5.00;;;4.40;;
3801;SDS011;1916;51.798;12.246;2023-03-16T01:30:53;8.40;;;4.43;;
3801;SDS011;1916;51.798;12.246;2023-03-16T01:32:59;12.27;;;4.80;;
3801;SDS011;1916;51.798;12.246;2023-03-16T01:35:05;9.77;;;5.37;;
3801;SDS011;1916;51.798;12.246;2023-03-16T01:37:08;7.83;;;4.70;;
3801;SDS011;1916;51.798;12.246;2023-03-16T01:39:30;5.97;;;4.40;;
3801;SDS011;1916;51.798;12.246;2023-03-16T01:41:36;10.60;;;4.50;;
3801;SDS011;1916;51.798;12.246;2023-03-16T01:43:40;10.33;;;4.40;;
3801;SDS011;1916;51.798;12.246;2023-03-16T01:47:59;9.07;;;4.77;;
3801;SDS011;1916;51.798;12.246;2023-03-16T01:50:01;4.70;;;4.10;;
3801;SDS011;1916;51.798;12.246;2023-03-16T01:52:09;12.73;;;4.83;;
3801;SDS011;1916;51.798;12.246;2023-03-16T01:56:28;7.90;;;4.50;;
3801;SDS011;1916;51.798;12.246;2023-03-16T01:58:35;8.30;;;4.80;;
3801;SDS011;1916;51.798;12.246;2023-03-16T02:00:39;8.27;;;4.87;;
3801;SDS011;1916;51.798;12.246;2023-03-16T02:02:54;9.53;;;4.30;;
3801;SDS011;1916;51.798;12.246;2023-03-16T02:07:18;11.40;;;5.17;;
3801;SDS011;1916;51.798;12.246;2023-03-16T02:09:24;8.13;;;5.13;;
3801;SDS011;1916;51.798;12.246;2023-03-16T02:11:27;6.17;;;5.13;;
3801;SDS011;1916;51.798;12.246;2023-03-16T02:13:40;9.73;;;5.13;;
3801;SDS011;1916;51.798;12.246;2023-03-16T02:15:44;14.10;;;4.57;;
3801;SDS011;1916;51.798;12.246;2023-03-16T02:17:48;9.07;;;5.90;;
3801;SDS011;1916;51.798;12.246;2023-03-16T02:22:24;9.43;;;5.03;;
3801;SDS011;1916;51.798;12.246;2023-03-16T02:24:28;8.07;;;5.40;;
3801;SDS011;1916;51.798;12.246;2023-03-16T02:31:04;7.10;;;4.77;;
3801;SDS011;1916;51.798;12.246;2023-03-16T02:33:07;5.37;;;4.57;;
3801;SDS011;1916;51.798;12.246;2023-03-16T02:35:09;5.50;;;5.00;;
3801;SDS011;1916;51.798;12.246;2023-03-16T02:37:14;6.33;;;4.53;;
3801;SDS011;1916;51.798;12.246;2023-03-16T02:39:17;8.90;;;5.57;;
3801;SDS011;1916;51.798;12.246;2023-03-16T02:41:20;5.60;;;5.03;;
3801;SDS011;1916;51.798;12.246;2023-03-16T02:43:30;12.33;;;5.43;;
3801;SDS011;1916;51.798;12.246;2023-03-16T02:45:43;7.50;;;5.27;;
3801;SDS011;1916;51.798;12.246;2023-03-16T02:47:49;9.37;;;4.70;;
3801;SDS011;1916;51.798;12.246;2023-03-16T02:49:55;6.10;;;5.20;;
3801;SDS011;1916;51.798;12.246;2023-03-16T02:51:57;7.80;;;5.27;;
3801;SDS011;1916;51.798;12.246;2023-03-16T02:54:00;7.97;;;4.10;;
3801;SDS011;1916;51.798;12.246;2023-03-16T02:56:07;7.10;;;4.83;;
3801;SDS011;1916;51.798;12.246;2023-03-16T02:58:11;5.43;;;4.33;;
3801;SDS011;1916;51.798;12.246;2023-03-16T03:00:17;8.47;;;4.70;;
3801;SDS011;1916;51.798;12.246;2023-03-16T03:02:23;8.60;;;4.80;;
3801;SDS011;1916;51.798;12.246;2023-03-16T03:04:26;9.60;;;4.60;;
3801;SDS011;1916;51.798;12.246;2023-03-16T03:06:28;5.10;;;4.17;;
3801;SDS011;1916;51.798;12.246;2023-03-16T03:08:33;6.07;;;4.37;;
3801;SDS011;1916;51.798;12.246;2023-03-16T03:10:36;9.33;;;4.70;;
3801;SDS011;1916;51.798;12.246;2023-03-16T03:12:38;6.33;;;4.90;;
3801;SDS011;1916;51.798;12.246;2023-03-16T03:14:43;8.00;;;4.77;;
3801;SDS011;1916;51.798;12.246;2023-03-16T03:16:46;7.60;;;4.40;;
3801;SDS011;1916;51.798;12.246;2023-03-16T03:18:50;6.30;;;4.07;;
3801;SDS011;1916;51.798;12.246;2023-03-16T03:20:53;10.00;;;5.07;;
3801;SDS011;1916;51.798;12.246;2023-03-16T03:22:56;9.37;;;4.93;;
3801;SDS011;1916;51.798;12.246;2023-03-16T03:24:58;7.00;;;5.00;;
3801;SDS011;1916;51.798;12.246;2023-03-16T03:27:03;9.10;;;5.83;;
3801;SDS011;1916;51.798;12.246;2023-03-16T03:29:11;14.00;;;6.53;;
3801;SDS011;1916;51.798;12.246;2023-03-16T03:31:18;9.53;;;6.00;;
3801;SDS011;1916;51.798;12.246;2023-03-16T03:33:25;7.73;;;5.00;;
3801;SDS011;1916;51.798;12.246;2023-03-16T03:35:31;12.57;;;5.97;;
3801;SDS011;1916;51.798;12.246;2023-03-16T03:37:33;11.60;;;6.80;;
3801;SDS011;1916;51.798;12.246;2023-03-16T03:39:37;9.70;;;5.90;;
3801;SDS011;1916;51.798;12.246;2023-03-16T03:41:43;14.10;;;6.07;;
3801;SDS011;1916;51.798;12.246;2023-03-16T03:43:45;6.17;;;5.20;;
3801;SDS011;1916;51.798;12.246;2023-03-16T03:45:59;14.47;;;5.63;;
3801;SDS011;1916;51.798;12.246;2023-03-16T03:48:05;9.83;;;5.33;;
3801;SDS011;1916;51.798;12.246;2023-03-16T03:50:09;10.17;;;6.00;;
3801;SDS011;1916;51.798;12.246;2023-03-16T03:52:22;10.80;;;5.57;;
3801;SDS011;1916;51.798;12.246;2023-03-16T03:54:26;8.53;;;5.50;;
3801;SDS011;1916;51.798;12.246;2023-03-16T03:56:39;10.40;;;6.00;;
3801;SDS011;1916;51.798;12.246;2023-03-16T03:58:46;5.00;;;4.60;;
3801;SDS011;1916;51.798;12.246;2023-03-16T04:00:55;10.63;;;6.40;;
3801;SDS011;1916;51.798;12.246;2023-03-16T04:02:57;10.03;;;5.97;;
3801;SDS011;1916;51.798;12.246;2023-03-16T04:05:08;8.77;;;5.60;;
3801;SDS011;1916;51.798;12.246;2023-03-16T04:07:10;11.17;;;5.53;;
3801;SDS011;1916;51.798;12.246;2023-03-16T04:09:14;6.77;;;5.00;;
3801;SDS011;1916;51.798;12.246;2023-03-16T04:11:18;13.20;;;5.80;;
3801;SDS011;1916;51.798;12.246;2023-03-16T04:13:22;7.43;;;5.20;;
3801;SDS011;1916;51.798;12.246;2023-03-16T04:15:25;7.90;;;5.70;;
3801;SDS011;1916;51.798;12.246;2023-03-16T04:17:43;6.67;;;5.47;;
3801;SDS011;1916;51.798;12.246;2023-03-16T04:19:46;6.40;;;5.57;;
3801;SDS011;1916;51.798;12.246;2023-03-16T04:21:51;9.40;;;5.67;;
3801;SDS011;1916;51.798;12.246;2023-03-16T04:23:54;11.17;;;5.90;;
3801;SDS011;1916;51.798;12.246;2023-03-16T04:26:04;9.00;;;5.37;;
3801;SDS011;1916;51.798;12.246;2023-03-16T04:28:06;8.67;;;5.70;;
3801;SDS011;1916;51.798;12.246;2023-03-16T04:30:12;8.50;;;6.57;;
3801;SDS011;1916;51.798;12.246;2023-03-16T04:32:20;8.30;;;5.73;;
3801;SDS011;1916;51.798;12.246;2023-03-16T04:34:22;8.43;;;5.30;;
3801;SDS011;1916;51.798;12.246;2023-03-16T04:36:30;7.20;;;4.93;;
3801;SDS011;1916;51.798;12.246;2023-03-16T04:38:36;12.87;;;5.80;;
3801;SDS011;1916;51.798;12.246;2023-03-16T04:40:40;10.40;;;6.03;;
3801;SDS011;1916;51.798;12.246;2023-03-16T04:42:48;6.40;;;5.60;;
3801;SDS011;1916;51.798;12.246;2023-03-16T04:44:55;7.20;;;5.50;;
3801;SDS011;1916;51.798;12.246;2023-03-16T04:46:59;9.33;;;5.50;;
3801;SDS011;1916;51.798;12.246;2023-03-16T04:49:10;9.50;;;5.33;;
3801;SDS011;1916;51.798;12.246;2023-03-16T04:51:15;7.50;;;5.80;;
3801;SDS011;1916;51.798;12.246;2023-03-16T04:53:32;9.53;;;5.60;;
3801;SDS011;1916;51.798;12.246;2023-03-16T04:55:43;8.33;;;5.30;;
3801;SDS011;1916;51.798;12.246;2023-03-16T04:57:46;6.27;;;5.60;;
3801;SDS011;1916;51.798;12.246;2023-03-16T04:59:48;12.23;;;6.17;;
3801;SDS011;1916;51.798;12.246;2023-03-16T05:02:03;8.47;;;5.80;;
3801;SDS011;1916;51.798;12.246;2023-03-16T05:04:05;12.50;;;5.50;;
3801;SDS011;1916;51.798;12.246;2023-03-16T05:06:11;11.60;;;6.33;;
3801;SDS011;1916;51.798;12.246;2023-03-16T05:08:15;8.23;;;6.57;;
3801;SDS011;1916;51.798;12.246;2023-03-16T05:10:21;16.00;;;6.20;;
3801;SDS011;1916;51.798;12.246;2023-03-16T05:12:23;9.50;;;6.40;;
3801;SDS011;1916;51.798;12.246;2023-03-16T05:14:33;14.50;;;7.17;;
3801;SDS011;1916;51.798;12.246;2023-03-16T05:16:51;9.07;;;6.40;;
3801;SDS011;1916;51.798;12.246;2023-03-16T05:18:58;8.30;;;7.27;;
3801;SDS011;1916;51.798;12.246;2023-03-16T05:21:05;9.57;;;6.90;;
3801;SDS011;1916;51.798;12.246;2023-03-16T05:23:20;8.57;;;6.50;;
3801;SDS011;1916;51.798;12.246;2023-03-16T05:25:29;9.37;;;6.87;;
3801;SDS011;1916;51.798;12.246;2023-03-16T05:27:36;9.00;;;5.67;;
3801;SDS011;1916;51.798;12.246;2023-03-16T05:29:40;12.23;;;6.50;;
3801;SDS011;1916;51.798;12.246;2023-03-16T05:31:48;11.13;;;5.40;;
3801;SDS011;1916;51.798;12.246;2023-03-16T05:33:55;11.50;;;5.90;;
3801;SDS011;1916;51.798;12.246;2023-03-16T05:35:58;8.00;;;5.80;;
3801;SDS011;1916;51.798;12.246;2023-03-16T05:38:01;6.10;;;5.50;;
3801;SDS011;1916;51.798;12.246;2023-03-16T05:40:05;9.33;;;5.53;;
3801;SDS011;1916;51.798;12.246;2023-03-16T05:42:25;6.80;;;5.37;;
3801;SDS011;1916;51.798;12.246;2023-03-16T05:44:32;7.97;;;5.30;;
3801;SDS011;1916;51.798;12.246;2023-03-16T05:46:43;10.90;;;5.40;;
3801;SDS011;1916;51.798;12.246;2023-03-16T05:48:46;9.93;;;6.07;;
3801;SDS011;1916;51.798;12.246;2023-03-16T05:50:51;7.57;;;6.03;;
3801;SDS011;1916;51.798;12.246;2023-03-16T05:52:58;8.33;;;6.40;;
3801;SDS011;1916;51.798;12.246;2023-03-16T05:55:01;10.33;;;6.23;;
3801;SDS011;1916;51.798;12.246;2023-03-16T05:57:03;13.30;;;7.00;;
3801;SDS011;1916;51.798;12.246;2023-03-16T05:59:09;13.40;;;7.23;;
3801;SDS011;1916;51.798;12.246;2023-03-16T06:01:11;16.63;;;6.80;;
3801;SDS011;1916;51.798;12.246;2023-03-16T06:03:16;13.13;;;7.90;;
3801;SDS011;1916;51.798;12.246;2023-03-16T06:05:19;19.10;;;9.50;;
3801;SDS011;1916;51.798;12.246;2023-03-16T06:07:22;16.73;;;10.80;;
3801;SDS011;1916;51.798;12.246;2023-03-16T06:09:28;16.90;;;10.07;;
3801;SDS011;1916;51.798;12.246;2023-03-16T06:11:30;13.13;;;9.83;;
3801;SDS011;1916;51.798;12.246;2023-03-16T06:13:34;14.27;;;9.03;;
3801;SDS011;1916;51.798;12.246;2023-03-16T06:15:37;15.63;;;7.63;;
3801;SDS011;1916;51.798;12.246;2023-03-16T06:17:39;13.20;;;8.50;;
3801;SDS011;1916;51.798;12.246;2023-03-16T06:19:43;13.50;;;7.20;;
3801;SDS011;1916;51.798;12.246;2023-03-16T06:21:45;13.67;;;8.53;;
3801;SDS011;1916;51.798;12.246;2023-03-16T06:23:51;12.87;;;7.33;;
3801;SDS011;1916;51.798;12.246;2023-03-16T06:25:55;7.83;;;7.10;;
3801;SDS011;1916;51.798;12.246;2023-03-16T06:27:59;11.43;;;7.10;;
3801;SDS011;1916;51.798;12.246;2023-03-16T06:30:03;13.20;;;7.77;;
3801;SDS011;1916;51.798;12.246;2023-03-16T06:32:07;12.10;;;7.83;;
3801;SDS011;1916;51.798;12.246;2023-03-16T06:34:10;16.10;;;8.37;;
3801;SDS011;1916;51.798;12.246;2023-03-16T06:36:14;11.20;;;7.53;;
3801;SDS011;1916;51.798;12.246;2023-03-16T06:38:21;15.77;;;8.20;;
3801;SDS011;1916;51.798;12.246;2023-03-16T06:40:32;14.53;;;9.20;;
3801;SDS011;1916;51.798;12.246;2023-03-16T06:42:34;13.97;;;9.87;;
3801;SDS011;1916;51.798;12.246;2023-03-16T06:44:37;11.47;;;8.07;;
3801;SDS011;1916;51.798;12.246;2023-03-16T06:46:43;12.00;;;7.93;;
3801;SDS011;1916;51.798;12.246;2023-03-16T06:48:45;13.67;;;7.70;;
3801;SDS011;1916;51.798;12.246;2023-03-16T06:50:49;19.33;;;8.30;;
3801;SDS011;1916;51.798;12.246;2023-03-16T06:52:59;15.10;;;8.57;;
3801;SDS011;1916;51.798;12.246;2023-03-16T06:55:05;12.70;;;6.20;;
3801;SDS011;1916;51.798;12.246;2023-03-16T06:57:11;9.50;;;7.80;;
3801;SDS011;1916;51.798;12.246;2023-03-16T06:59:16;25.17;;;7.90;;
3801;SDS011;1916;51.798;12.246;2023-03-16T07:01:18;12.40;;;7.20;;
3801;SDS011;1916;51.798;12.246;2023-03-16T07:03:20;14.00;;;7.50;;
3801;SDS011;1916;51.798;12.246;2023-03-16T07:05:29;18.83;;;8.03;;
3801;SDS011;1916;51.798;12.246;2023-03-16T07:07:34;12.33;;;8.30;;
3801;SDS011;1916;51.798;12.246;2023-03-16T07:09:36;13.07;;;8.37;;
3801;SDS011;1916;51.798;12.246;2023-03-16T07:11:42;10.30;;;6.87;;
3801;SDS011;1916;51.798;12.246;2023-03-16T07:13:45;10.20;;;7.80;;
3801;SDS011;1916;51.798;12.246;2023-03-16T07:15:49;13.27;;;7.10;;
3801;SDS011;1916;51.798;12.246;2023-03-16T07:17:54;11.37;;;7.07;;
3801;SDS011;1916;51.798;12.246;2023-03-16T07:19:58;14.33;;;7.93;;
3801;SDS011;1916;51.798;12.246;2023-03-16T07:22:01;17.33;;;7.67;;
3801;SDS011;1916;51.798;12.246;2023-03-16T07:24:07;13.77;;;7.07;;
3801;SDS011;1916;51.798;12.246;2023-03-16T07:26:11;13.70;;;7.03;;
3801;SDS011;1916;51.798;12.246;2023-03-16T07:28:24;10.20;;;6.83;;
3801;SDS011;1916;51.798;12.246;2023-03-16T07:30:31;12.43;;;6.40;;
3801;SDS011;1916;51.798;12.246;2023-03-16T07:32:34;13.23;;;6.73;;
3801;SDS011;1916;51.798;12.246;2023-03-16T07:34:38;10.20;;;6.23;;
3801;SDS011;1916;51.798;12.246;2023-03-16T07:36:41;11.90;;;6.20;;
3801;SDS011;1916;51.798;12.246;2023-03-16T07:38:44;11.10;;;5.40;;
3801;SDS011;1916;51.798;12.246;2023-03-16T07:40:48;12.37;;;6.33;;
3801;SDS011;1916;51.798;12.246;2023-03-16T07:42:55;8.70;;;5.93;;
3801;SDS011;1916;51.798;12.246;2023-03-16T07:45:03;9.03;;;6.43;;
3801;SDS011;1916;51.798;12.246;2023-03-16T07:47:07;9.03;;;5.70;;
3801;SDS011;1916;51.798;12.246;2023-03-16T07:49:13;8.70;;;6.40;;
3801;SDS011;1916;51.798;12.246;2023-03-16T07:51:18;13.73;;;6.30;;
3801;SDS011;1916;51.798;12.246;2023-03-16T07:53:23;7.90;;;6.17;;
3801;SDS011;1916;51.798;12.246;2023-03-16T07:55:36;11.20;;;6.73;;
3801;SDS011;1916;51.798;12.246;2023-03-16T07:57:41;9.87;;;5.40;;
3801;SDS011;1916;51.798;12.246;2023-03-16T07:59:53;11.57;;;6.70;;
3801;SDS011;1916;51.798;12.246;2023-03-16T08:01:56;10.33;;;5.50;;
3801;SDS011;1916;51.798;12.246;2023-03-16T08:04:00;7.27;;;5.40;;
3801;SDS011;1916;51.798;12.246;2023-03-16T08:06:02;9.63;;;5.60;;
3801;SDS011;1916;51.798;12.246;2023-03-16T08:08:06;10.03;;;5.93;;
3801;SDS011;1916;51.798;12.246;2023-03-16T08:10:12;10.07;;;5.30;;
3801;SDS011;1916;51.798;12.246;2023-03-16T08:12:24;5.70;;;4.63;;
3801;SDS011;1916;51.798;12.246;2023-03-16T08:14:26;7.77;;;4.80;;
3801;SDS011;1916;51.798;12.246;2023-03-16T08:16:39;11.23;;;5.00;;
3801;SDS011;1916;51.798;12.246;2023-03-16T08:18:43;6.00;;;4.20;;
3801;SDS011;1916;51.798;12.246;2023-03-16T08:20:46;8.50;;;4.40;;
3801;SDS011;1916;51.798;12.246;2023-03-16T08:22:48;11.33;;;4.20;;
3801;SDS011;1916;51.798;12.246;2023-03-16T08:24:56;8.03;;;4.10;;
3801;SDS011;1916;51.798;12.246;2023-03-16T08:26:59;6.67;;;3.90;;
3801;SDS011;1916;51.798;12.246;2023-03-16T08:29:04;7.57;;;4.17;;
3801;SDS011;1916;51.798;12.246;2023-03-16T08:31:10;11.67;;;4.73;;
3801;SDS011;1916;51.798;12.246;2023-03-16T08:33:33;7.20;;;3.97;;
3801;SDS011;1916;51.798;12.246;2023-03-16T08:35:40;4.27;;;3.50;;
3801;SDS011;1916;51.798;12.246;2023-03-16T08:37:44;8.07;;;3.93;;
3801;SDS011;1916;51.798;12.246;2023-03-16T08:39:47;6.27;;;4.37;;
3801;SDS011;1916;51.798;12.246;2023-03-16T08:41:52;7.07;;;3.70;;
3801;SDS011;1916;51.798;12.246;2023-03-16T08:44:08;8.63;;;3.53;;
3801;SDS011;1916;51.798;12.246;2023-03-16T08:46:11;5.43;;;3.10;;
3801;SDS011;1916;51.798;12.246;2023-03-16T08:48:21;6.93;;;3.70;;
3801;SDS011;1916;51.798;12.246;2023-03-16T08:50:24;7.63;;;3.77;;
3801;SDS011;1916;51.798;12.246;2023-03-16T08:52:27;5.70;;;3.10;;
3801;SDS011;1916;51.798;12.246;2023-03-16T08:54:29;6.80;;;3.63;;
3801;SDS011;1916;51.798;12.246;2023-03-16T08:56:33;9.90;;;3.80;;
3801;SDS011;1916;51.798;12.246;2023-03-16T08:58:35;5.50;;;3.17;;
3801;SDS011;1916;51.798;12.246;2023-03-16T09:00:38;7.83;;;4.97;;
3801;SDS011;1916;51.798;12.246;2023-03-16T09:02:41;8.40;;;3.40;;
3801;SDS011;1916;51.798;12.246;2023-03-16T09:04:43;6.67;;;3.77;;
3801;SDS011;1916;51.798;12.246;2023-03-16T09:06:47;8.33;;;3.70;;
3801;SDS011;1916;51.798;12.246;2023-03-16T09:09:08;5.63;;;3.00;;
3801;SDS011;1916;51.798;12.246;2023-03-16T09:11:13;6.17;;;3.03;;
3801;SDS011;1916;51.798;12.246;2023-03-16T09:13:16;10.17;;;4.60;;
3801;SDS011;1916;51.798;12.246;2023-03-16T09:15:19;6.77;;;3.77;;
3801;SDS011;1916;51.798;12.246;2023-03-16T09:17:23;5.23;;;3.40;;
3801;SDS011;1916;51.798;12.246;2023-03-16T09:19:27;8.80;;;3.20;;
3801;SDS011;1916;51.798;12.246;2023-03-16T09:21:41;4.47;;;2.17;;
3801;SDS011;1916;51.798;12.246;2023-03-16T09:23:44;7.13;;;2.67;;
3801;SDS011;1916;51.798;12.246;2023-03-16T09:25:46;4.47;;;2.83;;
3801;SDS011;1916;51.798;12.246;2023-03-16T09:27:49;4.40;;;1.83;;
3801;SDS011;1916;51.798;12.246;2023-03-16T09:29:51;5.60;;;2.00;;
3801;SDS011;1916;51.798;12.246;2023-03-16T09:31:57;7.90;;;2.43;;
3801;SDS011;1916;51.798;12.246;2023-03-16T09:33:59;5.57;;;2.00;;
3801;SDS011;1916;51.798;12.246;2023-03-16T09:36:01;4.03;;;2.27;;
3801;SDS011;1916;51.798;12.246;2023-03-16T09:38:04;8.73;;;2.30;;
3801;SDS011;1916;51.798;12.246;2023-03-16T09:40:13;5.40;;;2.20;;
3801;SDS011;1916;51.798;12.246;2023-03-16T09:47:08;6.67;;;2.13;;
3801;SDS011;1916;51.798;12.246;2023-03-16T09:49:14;8.10;;;2.27;;
3801;SDS011;1916;51.798;12.246;2023-03-16T09:51:41;5.67;;;2.07;;
3801;SDS011;1916;51.798;12.246;2023-03-16T09:54:02;5.27;;;2.10;;
3801;SDS011;1916;51.798;12.246;2023-03-16T09:56:21;3.37;;;2.17;;
3801;SDS011;1916;51.798;12.246;2023-03-16T10:05:19;5.30;;;2.47;;
3801;SDS011;1916;51.798;12.246;2023-03-16T10:08:03;3.80;;;2.27;;
3801;SDS011;1916;51.798;12.246;2023-03-16T10:16:42;3.40;;;2.30;;
3801;SDS011;1916;51.798;12.246;2023-03-16T10:18:49;9.33;;;2.90;;
3801;SDS011;1916;51.798;12.246;2023-03-16T10:20:59;4.47;;;2.70;;
3801;SDS011;1916;51.798;12.246;2023-03-16T10:23:12;8.40;;;2.50;;
3801;SDS011;1916;51.798;12.246;2023-03-16T10:27:35;4.03;;;1.93;;
3801;SDS011;1916;51.798;12.246;2023-03-16T10:29:39;2.07;;;1.60;;
3801;SDS011;1916;51.798;12.246;2023-03-16T10:31:42;4.40;;;2.40;;
3801;SDS011;1916;51.798;12.246;2023-03-16T10:33:44;4.60;;;2.30;;
3801;SDS011;1916;51.798;12.246;2023-03-16T10:37:50;4.97;;;2.23;;
3801;SDS011;1916;51.798;12.246;2023-03-16T10:39:54;6.40;;;1.83;;
3801;SDS011;1916;51.798;12.246;2023-03-16T10:41:57;3.10;;;2.00;;
3801;SDS011;1916;51.798;12.246;2023-03-16T10:44:01;3.23;;;1.97;;
3801;SDS011;1916;51.798;12.246;2023-03-16T10:46:10;5.43;;;2.17;;
3801;SDS011;1916;51.798;12.246;2023-03-16T10:48:16;3.73;;;2.30;;
3801;SDS011;1916;51.798;12.246;2023-03-16T10:50:22;7.13;;;2.30;;
3801;SDS011;1916;51.798;12.246;2023-03-16T10:52:33;2.80;;;1.97;;
3801;SDS011;1916;51.798;12.246;2023-03-16T10:54:37;7.00;;;2.00;;
3801;SDS011;1916;51.798;12.246;2023-03-16T10:56:41;5.00;;;1.77;;
3801;SDS011;1916;51.798;12.246;2023-03-16T10:58:43;3.90;;;2.10;;
3801;SDS011;1916;51.798;12.246;2023-03-16T11:00:47;3.40;;;2.60;;
3801;SDS011;1916;51.798;12.246;2023-03-16T11:02:50;6.27;;;2.70;;
3801;SDS011;1916;51.798;12.246;2023-03-16T11:04:57;4.90;;;2.20;;
3801;SDS011;1916;51.798;12.246;2023-03-16T11:06:59;3.03;;;2.30;;
3801;SDS011;1916;51.798;12.246;2023-03-16T11:09:05;3.40;;;2.57;;
3801;SDS011;1916;51.798;12.246;2023-03-16T11:11:45;3.57;;;2.73;;
3801;SDS011;1916;51.798;12.246;2023-03-16T11:13:44;5.17;;;3.60;;
3801;SDS011;1916;51.798;12.246;2023-03-16T11:18:09;8.60;;;3.90;;
3801;SDS011;1916;51.798;12.246;2023-03-16T11:20:34;6.23;;;3.10;;
3801;SDS011;1916;51.798;12.246;2023-03-16T11:22:36;4.60;;;2.90;;
3801;SDS011;1916;51.798;12.246;2023-03-16T11:25:03;4.43;;;2.57;;
3801;SDS011;1916;51.798;12.246;2023-03-16T11:27:32;5.00;;;2.23;;
3801;SDS011;1916;51.798;12.246;2023-03-16T11:29:47;3.53;;;2.40;;
3801;SDS011;1916;51.798;12.246;2023-03-16T11:32:05;4.53;;;2.50;;
3801;SDS011;1916;51.798;12.246;2023-03-16T11:34:15;4.27;;;2.43;;
3801;SDS011;1916;51.798;12.246;2023-03-16T11:40:57;3.53;;;2.27;;
3801;SDS011;1916;51.798;12.246;2023-03-16T11:50:52;3.53;;;2.30;;
3801;SDS011;1916;51.798;12.246;2023-03-16T11:56:23;5.13;;;1.87;;
3801;SDS011;1916;51.798;12.246;2023-03-16T11:59:17;3.53;;;2.03;;
3801;SDS011;1916;51.798;12.246;2023-03-16T12:01:31;1.83;;;1.70;;
3801;SDS011;1916;51.798;12.246;2023-03-16T12:04:06;3.07;;;2.10;;
3801;SDS011;1916;51.798;12.246;2023-03-16T12:11:19;7.30;;;2.20;;
3801;SDS011;1916;51.798;12.246;2023-03-16T12:13:29;6.50;;;2.10;;
3801;SDS011;1916;51.798;12.246;2023-03-16T12:17:45;2.73;;;1.93;;
3801;SDS011;1916;51.798;12.246;2023-03-16T12:19:57;4.00;;;2.17;;
3801;SDS011;1916;51.798;12.246;2023-03-16T12:22:06;4.80;;;1.97;;
3801;SDS011;1916;51.798;12.246;2023-03-16T12:24:17;4.00;;;2.37;;
3801;SDS011;1916;51.798;12.246;2023-03-16T12:26:23;2.70;;;2.33;;
3801;SDS011;1916;51.798;12.246;2023-03-16T12:28:30;4.20;;;2.17;;
3801;SDS011;1916;51.798;12.246;2023-03-16T12:32:43;35.53;;;2.47;;
3801;SDS011;1916;51.798;12.246;2023-03-16T12:37:15;6.10;;;2.37;;
3801;SDS011;1916;51.798;12.246;2023-03-16T12:42:18;8.77;;;2.67;;
3801;SDS011;1916;51.798;12.246;2023-03-16T12:44:48;5.37;;;2.50;;
3801;SDS011;1916;51.798;12.246;2023-03-16T12:47:18;3.13;;;2.00;;
3801;SDS011;1916;51.798;12.246;2023-03-16T12:49:32;4.63;;;2.07;;
3801;SDS011;1916;51.798;12.246;2023-03-16T12:51:37;3.33;;;2.20;;
3801;SDS011;1916;51.798;12.246;2023-03-16T12:53:44;3.67;;;2.07;;
3801;SDS011;1916;51.798;12.246;2023-03-16T12:55:48;6.43;;;2.73;;
3801;SDS011;1916;51.798;12.246;2023-03-16T12:57:50;3.77;;;1.70;;
3801;SDS011;1916;51.798;12.246;2023-03-16T13:00:00;3.40;;;1.90;;
3801;SDS011;1916;51.798;12.246;2023-03-16T13:02:02;2.87;;;1.73;;
3801;SDS011;1916;51.798;12.246;2023-03-16T13:06:18;3.63;;;2.53;;
3801;SDS011;1916;51.798;12.246;2023-03-16T13:08:22;3.03;;;2.10;;
3801;SDS011;1916;51.798;12.246;2023-03-16T13:10:25;2.40;;;1.83;;
3801;SDS011;1916;51.798;12.246;2023-03-16T13:12:29;4.97;;;1.80;;
3801;SDS011;1916;51.798;12.246;2023-03-16T13:16:43;3.23;;;1.80;;
3801;SDS011;1916;51.798;12.246;2023-03-16T13:18:46;4.10;;;1.87;;
3801;SDS011;1916;51.798;12.246;2023-03-16T13:20:53;2.33;;;1.77;;
3801;SDS011;1916;51.798;12.246;2023-03-16T13:23:07;4.27;;;3.00;;
3801;SDS011;1916;51.798;12.246;2023-03-16T13:27:27;6.40;;;2.30;;
3801;SDS011;1916;51.798;12.246;2023-03-16T13:29:34;2.50;;;2.20;;
3801;SDS011;1916;51.798;12.246;2023-03-16T13:31:39;5.50;;;2.03;;
3801;SDS011;1916;51.798;12.246;2023-03-16T13:33:45;3.53;;;1.97;;
3801;SDS011;1916;51.798;12.246;2023-03-16T13:35:48;3.40;;;1.87;;
3801;SDS011;1916;51.798;12.246;2023-03-16T13:37:53;2.03;;;1.83;;
3801;SDS011;1916;51.798;12.246;2023-03-16T13:39:57;4.37;;;2.17;;
3801;SDS011;1916;51.798;12.246;2023-03-16T13:44:14;3.43;;;2.20;;
3801;SDS011;1916;51.798;12.246;2023-03-16T13:46:17;2.47;;;1.80;;
3801;SDS011;1916;51.798;12.246;2023-03-16T13:48:22;5.43;;;2.37;;
3801;SDS011;1916;51.798;12.246;2023-03-16T13:50:24;2.13;;;1.87;;
3801;SDS011;1916;51.798;12.246;2023-03-16T13:52:28;4.50;;;2.07;;
3801;SDS011;1916;51.798;12.246;2023-03-16T13:54:32;2.07;;;1.97;;
3801;SDS011;1916;51.798;12.246;2023-03-16T13:56:37;4.93;;;1.90;;
3801;SDS011;1916;51.798;12.246;2023-03-16T13:58:43;2.83;;;1.87;;
3801;SDS011;1916;51.798;12.246;2023-03-16T14:00:48;3.50;;;2.30;;
3801;SDS011;1916;51.798;12.246;2023-03-16T14:02:54;5.53;;;1.67;;
3801;SDS011;1916;51.798;12.246;2023-03-16T14:05:07;6.70;;;2.40;;
3801;SDS011;1916;51.798;12.246;2023-03-16T14:07:14;5.90;;;2.00;;